sensor_id;sensor_type;location;lat;lon;timestamp;P1;durP1;ratioP1;P2;durP2;ratioP2
19687;SDS011;9993;52.008;4.732;2022-10-24T00:00:53;6.13;;;3.60;;
19687;SDS011;9993;52.008;4.732;2022-10-24T00:03:18;7.13;;;4.40;;
19687;SDS011;9993;52.008;4.732;2022-10-24T00:05:44;5.32;;;3.92;;
19687;SDS011;9993;52.008;4.732;2022-10-24T00:08:10;4.95;;;3.28;;
19687;SDS011;9993;52.008;4.732;2022-10-24T00:10:35;10.75;;;4.47;;
19687;SDS011;9993;52.008;4.732;2022-10-24T00:13:01;11.20;;;4.45;;
19687;SDS011;9993;52.008;4.732;2022-10-24T00:15:26;7.30;;;4.00;;
19687;SDS011;9993;52.008;4.732;2022-10-24T00:17:51;6.35;;;3.50;;
19687;SDS011;9993;52.008;4.732;2022-10-24T00:20:16;7.95;;;4.07;;
19687;SDS011;9993;52.008;4.732;2022-10-24T00:22:42;7.32;;;4.13;;
19687;SDS011;9993;52.008;4.732;2022-10-24T00:25:07;8.32;;;4.55;;
19687;SDS011;9993;52.008;4.732;2022-10-24T00:27:32;7.15;;;3.80;;
19687;SDS011;9993;52.008;4.732;2022-10-24T00:29:58;6.35;;;4.32;;
19687;SDS011;9993;52.008;4.732;2022-10-24T00:32:23;4.93;;;3.92;;
19687;SDS011;9993;52.008;4.732;2022-10-24T00:34:48;5.95;;;3.60;;
19687;SDS011;9993;52.008;4.732;2022-10-24T00:37:13;8.38;;;4.18;;
19687;SDS011;9993;52.008;4.732;2022-10-24T00:39:38;5.05;;;3.55;;
19687;SDS011;9993;52.008;4.732;2022-10-24T00:42:04;8.18;;;3.95;;
19687;SDS011;9993;52.008;4.732;2022-10-24T00:44:36;6.25;;;2.85;;
19687;SDS011;9993;52.008;4.732;2022-10-24T00:47:15;6.35;;;3.20;;
19687;SDS011;9993;52.008;4.732;2022-10-24T00:52:29;6.90;;;3.65;;
19687;SDS011;9993;52.008;4.732;2022-10-24T00:54:55;5.65;;;3.20;;
19687;SDS011;9993;52.008;4.732;2022-10-24T00:59:52;7.90;;;3.00;;
19687;SDS011;9993;52.008;4.732;2022-10-24T01:02:18;10.50;;;2.95;;
19687;SDS011;9993;52.008;4.732;2022-10-24T01:04:45;10.13;;;2.80;;
19687;SDS011;9993;52.008;4.732;2022-10-24T01:07:22;5.95;;;3.10;;
19687;SDS011;9993;52.008;4.732;2022-10-24T01:12:31;7.43;;;3.10;;
19687;SDS011;9993;52.008;4.732;2022-10-24T01:17:38;5.37;;;2.80;;
19687;SDS011;9993;52.008;4.732;2022-10-24T01:20:13;5.22;;;2.70;;
19687;SDS011;9993;52.008;4.732;2022-10-24T01:27:56;5.50;;;2.58;;
19687;SDS011;9993;52.008;4.732;2022-10-24T01:30:24;4.53;;;2.42;;
19687;SDS011;9993;52.008;4.732;2022-10-24T01:32:59;7.82;;;2.60;;
19687;SDS011;9993;52.008;4.732;2022-10-24T01:40:29;4.32;;;2.80;;
19687;SDS011;9993;52.008;4.732;2022-10-24T01:42:55;6.25;;;2.78;;
19687;SDS011;9993;52.008;4.732;2022-10-24T01:45:25;6.10;;;2.70;;
19687;SDS011;9993;52.008;4.732;2022-10-24T01:47:53;5.60;;;2.22;;
19687;SDS011;9993;52.008;4.732;2022-10-24T01:50:19;4.93;;;2.95;;
19687;SDS011;9993;52.008;4.732;2022-10-24T01:52:45;5.88;;;2.53;;
19687;SDS011;9993;52.008;4.732;2022-10-24T01:55:11;2.92;;;2.38;;
19687;SDS011;9993;52.008;4.732;2022-10-24T01:57:37;3.30;;;2.03;;
19687;SDS011;9993;52.008;4.732;2022-10-24T02:00:04;6.95;;;3.28;;
19687;SDS011;9993;52.008;4.732;2022-10-24T02:02:38;4.50;;;2.33;;
19687;SDS011;9993;52.008;4.732;2022-10-24T02:05:08;6.13;;;2.25;;
19687;SDS011;9993;52.008;4.732;2022-10-24T02:07:35;7.30;;;2.65;;
19687;SDS011;9993;52.008;4.732;2022-10-24T02:10:02;6.90;;;2.67;;
19687;SDS011;9993;52.008;4.732;2022-10-24T02:12:29;9.68;;;2.65;;
19687;SDS011;9993;52.008;4.732;2022-10-24T02:14:57;3.15;;;2.13;;
19687;SDS011;9993;52.008;4.732;2022-10-24T02:17:23;4.93;;;2.83;;
19687;SDS011;9993;52.008;4.732;2022-10-24T02:19:49;5.10;;;2.40;;
19687;SDS011;9993;52.008;4.732;2022-10-24T02:24:48;5.32;;;2.47;;
19687;SDS011;9993;52.008;4.732;2022-10-24T02:27:16;3.35;;;2.38;;
19687;SDS011;9993;52.008;4.732;2022-10-24T02:29:44;4.68;;;2.20;;
19687;SDS011;9993;52.008;4.732;2022-10-24T02:32:12;2.33;;;2.13;;
19687;SDS011;9993;52.008;4.732;2022-10-24T02:34:38;4.35;;;2.80;;
19687;SDS011;9993;52.008;4.732;2022-10-24T02:37:05;5.72;;;2.25;;
19687;SDS011;9993;52.008;4.732;2022-10-24T02:39:31;6.32;;;2.40;;
19687;SDS011;9993;52.008;4.732;2022-10-24T02:41:57;2.42;;;2.05;;
19687;SDS011;9993;52.008;4.732;2022-10-24T02:44:23;4.25;;;2.00;;
19687;SDS011;9993;52.008;4.732;2022-10-24T02:46:49;4.50;;;2.25;;
19687;SDS011;9993;52.008;4.732;2022-10-24T02:49:15;2.42;;;2.00;;
19687;SDS011;9993;52.008;4.732;2022-10-24T02:51:41;5.63;;;2.10;;
19687;SDS011;9993;52.008;4.732;2022-10-24T02:54:07;5.38;;;2.05;;
19687;SDS011;9993;52.008;4.732;2022-10-24T02:56:32;2.88;;;2.15;;
19687;SDS011;9993;52.008;4.732;2022-10-24T02:58:59;5.53;;;2.15;;
19687;SDS011;9993;52.008;4.732;2022-10-24T03:01:24;3.30;;;1.83;;
19687;SDS011;9993;52.008;4.732;2022-10-24T03:03:49;2.13;;;1.92;;
19687;SDS011;9993;52.008;4.732;2022-10-24T03:06:15;4.82;;;2.03;;
19687;SDS011;9993;52.008;4.732;2022-10-24T03:08:40;4.22;;;1.92;;
19687;SDS011;9993;52.008;4.732;2022-10-24T03:11:05;4.10;;;1.90;;
19687;SDS011;9993;52.008;4.732;2022-10-24T03:13:30;5.45;;;1.95;;
19687;SDS011;9993;52.008;4.732;2022-10-24T03:15:56;5.10;;;2.17;;
19687;SDS011;9993;52.008;4.732;2022-10-24T03:18:21;1.85;;;1.60;;
19687;SDS011;9993;52.008;4.732;2022-10-24T03:20:46;4.20;;;1.90;;
19687;SDS011;9993;52.008;4.732;2022-10-24T03:23:11;3.13;;;1.50;;
19687;SDS011;9993;52.008;4.732;2022-10-24T03:25:37;5.03;;;1.80;;
19687;SDS011;9993;52.008;4.732;2022-10-24T03:28:02;4.80;;;1.75;;
19687;SDS011;9993;52.008;4.732;2022-10-24T03:30:27;4.28;;;1.92;;
19687;SDS011;9993;52.008;4.732;2022-10-24T03:32:52;5.18;;;1.48;;
19687;SDS011;9993;52.008;4.732;2022-10-24T03:35:17;3.10;;;1.63;;
19687;SDS011;9993;52.008;4.732;2022-10-24T03:37:43;5.35;;;2.13;;
19687;SDS011;9993;52.008;4.732;2022-10-24T03:40:08;4.55;;;1.73;;
19687;SDS011;9993;52.008;4.732;2022-10-24T03:42:34;3.85;;;1.70;;
19687;SDS011;9993;52.008;4.732;2022-10-24T03:44:59;3.17;;;1.48;;
19687;SDS011;9993;52.008;4.732;2022-10-24T03:47:24;5.05;;;1.77;;
19687;SDS011;9993;52.008;4.732;2022-10-24T03:49:49;2.38;;;1.48;;
19687;SDS011;9993;52.008;4.732;2022-10-24T03:52:14;2.80;;;1.40;;
19687;SDS011;9993;52.008;4.732;2022-10-24T03:54:40;4.10;;;1.70;;
19687;SDS011;9993;52.008;4.732;2022-10-24T03:57:05;6.30;;;2.00;;
19687;SDS011;9993;52.008;4.732;2022-10-24T03:59:30;9.10;;;1.92;;
19687;SDS011;9993;52.008;4.732;2022-10-24T04:01:56;4.25;;;1.70;;
19687;SDS011;9993;52.008;4.732;2022-10-24T04:04:21;4.18;;;1.77;;
19687;SDS011;9993;52.008;4.732;2022-10-24T04:06:47;4.57;;;1.80;;
19687;SDS011;9993;52.008;4.732;2022-10-24T04:09:12;5.50;;;1.30;;
19687;SDS011;9993;52.008;4.732;2022-10-24T04:11:37;4.70;;;1.95;;
19687;SDS011;9993;52.008;4.732;2022-10-24T04:14:02;7.68;;;1.95;;
19687;SDS011;9993;52.008;4.732;2022-10-24T04:16:27;3.53;;;1.63;;
19687;SDS011;9993;52.008;4.732;2022-10-24T04:18:53;6.28;;;2.00;;
19687;SDS011;9993;52.008;4.732;2022-10-24T04:21:18;3.75;;;1.63;;
19687;SDS011;9993;52.008;4.732;2022-10-24T04:23:43;4.03;;;1.80;;
19687;SDS011;9993;52.008;4.732;2022-10-24T04:26:09;4.65;;;1.75;;
19687;SDS011;9993;52.008;4.732;2022-10-24T04:28:34;6.93;;;1.70;;
19687;SDS011;9993;52.008;4.732;2022-10-24T04:30:59;8.90;;;1.73;;
19687;SDS011;9993;52.008;4.732;2022-10-24T04:33:25;7.15;;;2.08;;
19687;SDS011;9993;52.008;4.732;2022-10-24T04:35:50;9.45;;;1.85;;
19687;SDS011;9993;52.008;4.732;2022-10-24T04:38:16;3.03;;;2.08;;
19687;SDS011;9993;52.008;4.732;2022-10-24T04:40:44;5.60;;;1.75;;
19687;SDS011;9993;52.008;4.732;2022-10-24T04:43:09;3.88;;;1.58;;
19687;SDS011;9993;52.008;4.732;2022-10-24T04:45:34;3.95;;;1.60;;
19687;SDS011;9993;52.008;4.732;2022-10-24T04:47:59;6.50;;;2.00;;
19687;SDS011;9993;52.008;4.732;2022-10-24T04:50:24;3.35;;;1.58;;
19687;SDS011;9993;52.008;4.732;2022-10-24T04:52:50;4.40;;;1.70;;
19687;SDS011;9993;52.008;4.732;2022-10-24T04:55:15;4.45;;;1.83;;
19687;SDS011;9993;52.008;4.732;2022-10-24T04:57:40;4.68;;;1.48;;
19687;SDS011;9993;52.008;4.732;2022-10-24T05:00:05;5.85;;;1.80;;
19687;SDS011;9993;52.008;4.732;2022-10-24T05:02:31;4.47;;;1.67;;
19687;SDS011;9993;52.008;4.732;2022-10-24T05:04:56;1.73;;;1.50;;
19687;SDS011;9993;52.008;4.732;2022-10-24T05:07:21;3.50;;;1.60;;
19687;SDS011;9993;52.008;4.732;2022-10-24T05:09:46;5.22;;;1.40;;
19687;SDS011;9993;52.008;4.732;2022-10-24T05:12:12;4.60;;;1.50;;
19687;SDS011;9993;52.008;4.732;2022-10-24T05:14:37;4.30;;;1.75;;
19687;SDS011;9993;52.008;4.732;2022-10-24T05:17:03;6.75;;;2.05;;
19687;SDS011;9993;52.008;4.732;2022-10-24T05:19:28;3.67;;;1.67;;
19687;SDS011;9993;52.008;4.732;2022-10-24T05:21:53;4.18;;;1.80;;
19687;SDS011;9993;52.008;4.732;2022-10-24T05:24:18;3.50;;;1.65;;
19687;SDS011;9993;52.008;4.732;2022-10-24T05:26:43;2.85;;;1.40;;
19687;SDS011;9993;52.008;4.732;2022-10-24T05:29:09;2.55;;;1.50;;
19687;SDS011;9993;52.008;4.732;2022-10-24T05:31:34;5.95;;;1.55;;
19687;SDS011;9993;52.008;4.732;2022-10-24T05:33:59;4.70;;;1.48;;
19687;SDS011;9993;52.008;4.732;2022-10-24T05:36:24;5.47;;;1.60;;
19687;SDS011;9993;52.008;4.732;2022-10-24T05:38:49;2.35;;;1.50;;
19687;SDS011;9993;52.008;4.732;2022-10-24T05:41:15;4.07;;;1.50;;
19687;SDS011;9993;52.008;4.732;2022-10-24T05:43:40;4.18;;;1.60;;
19687;SDS011;9993;52.008;4.732;2022-10-24T05:46:05;2.70;;;1.77;;
19687;SDS011;9993;52.008;4.732;2022-10-24T05:48:31;7.03;;;2.25;;
19687;SDS011;9993;52.008;4.732;2022-10-24T05:50:56;7.88;;;1.45;;
19687;SDS011;9993;52.008;4.732;2022-10-24T05:53:21;6.85;;;1.75;;
19687;SDS011;9993;52.008;4.732;2022-10-24T05:55:47;5.25;;;1.80;;
19687;SDS011;9993;52.008;4.732;2022-10-24T05:58:12;2.80;;;1.42;;
19687;SDS011;9993;52.008;4.732;2022-10-24T06:00:37;5.38;;;1.65;;
19687;SDS011;9993;52.008;4.732;2022-10-24T06:03:02;3.80;;;1.75;;
19687;SDS011;9993;52.008;4.732;2022-10-24T06:05:28;7.55;;;2.20;;
19687;SDS011;9993;52.008;4.732;2022-10-24T06:07:53;5.75;;;1.60;;
19687;SDS011;9993;52.008;4.732;2022-10-24T06:10:18;3.55;;;1.63;;
19687;SDS011;9993;52.008;4.732;2022-10-24T06:12:44;2.83;;;1.58;;
19687;SDS011;9993;52.008;4.732;2022-10-24T06:15:10;5.85;;;1.65;;
19687;SDS011;9993;52.008;4.732;2022-10-24T06:17:35;6.22;;;2.22;;
19687;SDS011;9993;52.008;4.732;2022-10-24T06:20:01;3.83;;;1.63;;
19687;SDS011;9993;52.008;4.732;2022-10-24T06:22:26;5.13;;;1.50;;
19687;SDS011;9993;52.008;4.732;2022-10-24T06:24:53;3.28;;;1.30;;
19687;SDS011;9993;52.008;4.732;2022-10-24T06:27:20;2.05;;;1.48;;
19687;SDS011;9993;52.008;4.732;2022-10-24T06:29:45;5.80;;;1.73;;
19687;SDS011;9993;52.008;4.732;2022-10-24T06:32:10;2.33;;;1.33;;
19687;SDS011;9993;52.008;4.732;2022-10-24T06:34:36;4.40;;;1.80;;
19687;SDS011;9993;52.008;4.732;2022-10-24T06:37:01;5.55;;;1.75;;
19687;SDS011;9993;52.008;4.732;2022-10-24T06:39:26;3.67;;;1.63;;
19687;SDS011;9993;52.008;4.732;2022-10-24T06:41:51;5.60;;;1.95;;
19687;SDS011;9993;52.008;4.732;2022-10-24T06:44:17;6.05;;;1.80;;
19687;SDS011;9993;52.008;4.732;2022-10-24T06:46:42;6.28;;;2.22;;
19687;SDS011;9993;52.008;4.732;2022-10-24T06:49:07;3.38;;;1.73;;
19687;SDS011;9993;52.008;4.732;2022-10-24T06:51:33;5.18;;;2.03;;
19687;SDS011;9993;52.008;4.732;2022-10-24T06:53:59;6.57;;;1.90;;
19687;SDS011;9993;52.008;4.732;2022-10-24T06:56:24;6.30;;;1.80;;
19687;SDS011;9993;52.008;4.732;2022-10-24T06:58:49;7.15;;;1.70;;
19687;SDS011;9993;52.008;4.732;2022-10-24T07:01:16;2.22;;;1.50;;
19687;SDS011;9993;52.008;4.732;2022-10-24T07:03:41;7.13;;;1.63;;
19687;SDS011;9993;52.008;4.732;2022-10-24T07:06:07;3.47;;;1.58;;
19687;SDS011;9993;52.008;4.732;2022-10-24T07:08:33;6.95;;;1.67;;
19687;SDS011;9993;52.008;4.732;2022-10-24T07:10:58;4.10;;;1.90;;
19687;SDS011;9993;52.008;4.732;2022-10-24T07:13:23;4.95;;;1.73;;
19687;SDS011;9993;52.008;4.732;2022-10-24T07:15:48;3.30;;;1.42;;
19687;SDS011;9993;52.008;4.732;2022-10-24T07:18:18;5.72;;;1.88;;
19687;SDS011;9993;52.008;4.732;2022-10-24T07:20:43;7.43;;;2.38;;
19687;SDS011;9993;52.008;4.732;2022-10-24T07:23:08;5.47;;;2.03;;
19687;SDS011;9993;52.008;4.732;2022-10-24T07:25:33;2.90;;;2.28;;
19687;SDS011;9993;52.008;4.732;2022-10-24T07:27:58;5.07;;;1.92;;
19687;SDS011;9993;52.008;4.732;2022-10-24T07:30:24;3.38;;;1.42;;
19687;SDS011;9993;52.008;4.732;2022-10-24T07:32:49;4.60;;;1.88;;
19687;SDS011;9993;52.008;4.732;2022-10-24T07:35:14;5.55;;;1.60;;
19687;SDS011;9993;52.008;4.732;2022-10-24T07:37:39;8.48;;;2.35;;
19687;SDS011;9993;52.008;4.732;2022-10-24T07:40:04;6.70;;;1.90;;
19687;SDS011;9993;52.008;4.732;2022-10-24T07:42:30;3.05;;;1.83;;
19687;SDS011;9993;52.008;4.732;2022-10-24T07:44:55;7.22;;;2.05;;
19687;SDS011;9993;52.008;4.732;2022-10-24T07:47:20;3.90;;;1.80;;
19687;SDS011;9993;52.008;4.732;2022-10-24T07:49:45;4.13;;;1.90;;
19687;SDS011;9993;52.008;4.732;2022-10-24T07:52:10;5.55;;;1.98;;
19687;SDS011;9993;52.008;4.732;2022-10-24T07:54:36;4.65;;;1.85;;
19687;SDS011;9993;52.008;4.732;2022-10-24T07:57:01;3.88;;;1.30;;
19687;SDS011;9993;52.008;4.732;2022-10-24T07:59:27;4.85;;;1.80;;
19687;SDS011;9993;52.008;4.732;2022-10-24T08:01:52;6.43;;;1.70;;
19687;SDS011;9993;52.008;4.732;2022-10-24T08:04:17;7.72;;;2.30;;
19687;SDS011;9993;52.008;4.732;2022-10-24T08:06:42;3.65;;;1.60;;
19687;SDS011;9993;52.008;4.732;2022-10-24T08:09:08;5.55;;;2.20;;
19687;SDS011;9993;52.008;4.732;2022-10-24T08:11:34;6.90;;;2.00;;
19687;SDS011;9993;52.008;4.732;2022-10-24T08:13:59;7.20;;;2.05;;
19687;SDS011;9993;52.008;4.732;2022-10-24T08:16:26;5.13;;;1.88;;
19687;SDS011;9993;52.008;4.732;2022-10-24T08:18:52;4.80;;;1.80;;
19687;SDS011;9993;52.008;4.732;2022-10-24T08:21:20;3.67;;;1.90;;
19687;SDS011;9993;52.008;4.732;2022-10-24T08:23:46;4.57;;;2.13;;
19687;SDS011;9993;52.008;4.732;2022-10-24T08:26:12;5.95;;;2.50;;
19687;SDS011;9993;52.008;4.732;2022-10-24T08:28:38;3.47;;;1.63;;
19687;SDS011;9993;52.008;4.732;2022-10-24T08:31:04;2.88;;;1.60;;
19687;SDS011;9993;52.008;4.732;2022-10-24T08:33:30;5.07;;;2.20;;
19687;SDS011;9993;52.008;4.732;2022-10-24T08:35:57;5.50;;;1.95;;
19687;SDS011;9993;52.008;4.732;2022-10-24T08:38:22;1.60;;;1.50;;
19687;SDS011;9993;52.008;4.732;2022-10-24T08:40:47;4.25;;;1.70;;
19687;SDS011;9993;52.008;4.732;2022-10-24T08:43:13;4.53;;;1.60;;
19687;SDS011;9993;52.008;4.732;2022-10-24T08:48:13;4.63;;;1.90;;
19687;SDS011;9993;52.008;4.732;2022-10-24T08:50:41;3.20;;;1.73;;
19687;SDS011;9993;52.008;4.732;2022-10-24T08:55:37;6.75;;;2.00;;
19687;SDS011;9993;52.008;4.732;2022-10-24T08:58:03;5.38;;;1.60;;
19687;SDS011;9993;52.008;4.732;2022-10-24T09:00:31;10.27;;;3.95;;
19687;SDS011;9993;52.008;4.732;2022-10-24T09:03:03;5.72;;;2.08;;
19687;SDS011;9993;52.008;4.732;2022-10-24T09:05:32;9.27;;;2.50;;
19687;SDS011;9993;52.008;4.732;2022-10-24T09:08:01;2.35;;;1.67;;
19687;SDS011;9993;52.008;4.732;2022-10-24T09:10:41;6.20;;;1.67;;
19687;SDS011;9993;52.008;4.732;2022-10-24T09:13:14;4.43;;;1.95;;
19687;SDS011;9993;52.008;4.732;2022-10-24T09:15:41;3.83;;;1.45;;
19687;SDS011;9993;52.008;4.732;2022-10-24T09:18:11;5.90;;;2.10;;
19687;SDS011;9993;52.008;4.732;2022-10-24T09:20:38;5.03;;;2.50;;
19687;SDS011;9993;52.008;4.732;2022-10-24T09:23:03;4.40;;;1.92;;
19687;SDS011;9993;52.008;4.732;2022-10-24T09:25:30;4.35;;;1.50;;
19687;SDS011;9993;52.008;4.732;2022-10-24T09:27:57;4.28;;;1.73;;
19687;SDS011;9993;52.008;4.732;2022-10-24T09:30:23;3.22;;;2.03;;
19687;SDS011;9993;52.008;4.732;2022-10-24T09:32:50;3.75;;;1.75;;
19687;SDS011;9993;52.008;4.732;2022-10-24T09:35:26;5.80;;;1.70;;
19687;SDS011;9993;52.008;4.732;2022-10-24T09:37:55;3.17;;;1.95;;
19687;SDS011;9993;52.008;4.732;2022-10-24T09:40:24;4.65;;;2.08;;
19687;SDS011;9993;52.008;4.732;2022-10-24T09:42:52;5.65;;;2.72;;
19687;SDS011;9993;52.008;4.732;2022-10-24T09:47:44;6.95;;;3.03;;
19687;SDS011;9993;52.008;4.732;2022-10-24T09:50:18;4.00;;;1.92;;
19687;SDS011;9993;52.008;4.732;2022-10-24T09:52:43;4.22;;;2.08;;
19687;SDS011;9993;52.008;4.732;2022-10-24T09:55:17;2.90;;;1.65;;
19687;SDS011;9993;52.008;4.732;2022-10-24T09:57:43;5.20;;;2.35;;
19687;SDS011;9993;52.008;4.732;2022-10-24T10:03:00;2.80;;;1.67;;
19687;SDS011;9993;52.008;4.732;2022-10-24T10:05:26;3.20;;;1.55;;
19687;SDS011;9993;52.008;4.732;2022-10-24T10:07:51;6.95;;;1.92;;
19687;SDS011;9993;52.008;4.732;2022-10-24T10:12:42;4.28;;;1.63;;
19687;SDS011;9993;52.008;4.732;2022-10-24T10:17:53;2.63;;;1.60;;
19687;SDS011;9993;52.008;4.732;2022-10-24T10:20:25;3.90;;;1.80;;
19687;SDS011;9993;52.008;4.732;2022-10-24T10:22:51;3.60;;;1.73;;
19687;SDS011;9993;52.008;4.732;2022-10-24T10:25:27;2.58;;;1.63;;
19687;SDS011;9993;52.008;4.732;2022-10-24T10:27:52;5.38;;;2.03;;
19687;SDS011;9993;52.008;4.732;2022-10-24T10:30:19;4.05;;;1.88;;
19687;SDS011;9993;52.008;4.732;2022-10-24T10:38:13;3.90;;;1.83;;
19687;SDS011;9993;52.008;4.732;2022-10-24T10:40:43;3.40;;;1.52;;
19687;SDS011;9993;52.008;4.732;2022-10-24T10:45:41;5.32;;;1.70;;
19687;SDS011;9993;52.008;4.732;2022-10-24T10:53:25;3.92;;;1.65;;
19687;SDS011;9993;52.008;4.732;2022-10-24T11:06:22;3.63;;;1.40;;
19687;SDS011;9993;52.008;4.732;2022-10-24T11:11:18;2.00;;;1.35;;
19687;SDS011;9993;52.008;4.732;2022-10-24T11:14:11;4.65;;;1.70;;
19687;SDS011;9993;52.008;4.732;2022-10-24T11:16:32;3.78;;;2.00;;
19687;SDS011;9993;52.008;4.732;2022-10-24T11:19:00;5.50;;;1.98;;
19687;SDS011;9993;52.008;4.732;2022-10-24T11:21:26;2.22;;;1.90;;
19687;SDS011;9993;52.008;4.732;2022-10-24T11:26:21;2.38;;;1.95;;
19687;SDS011;9993;52.008;4.732;2022-10-24T11:28:58;6.75;;;2.03;;
19687;SDS011;9993;52.008;4.732;2022-10-24T11:31:33;4.03;;;2.10;;
19687;SDS011;9993;52.008;4.732;2022-10-24T11:36:35;5.10;;;2.03;;
19687;SDS011;9993;52.008;4.732;2022-10-24T11:39:09;4.32;;;2.42;;
19687;SDS011;9993;52.008;4.732;2022-10-24T11:41:39;4.45;;;1.80;;
19687;SDS011;9993;52.008;4.732;2022-10-24T11:46:50;4.57;;;1.88;;
19687;SDS011;9993;52.008;4.732;2022-10-24T11:51:44;2.43;;;1.80;;
19687;SDS011;9993;52.008;4.732;2022-10-24T11:54:18;6.32;;;1.92;;
19687;SDS011;9993;52.008;4.732;2022-10-24T11:56:49;3.33;;;2.10;;
19687;SDS011;9993;52.008;4.732;2022-10-24T11:59:16;3.72;;;2.45;;
19687;SDS011;9993;52.008;4.732;2022-10-24T12:07:19;5.80;;;2.47;;
19687;SDS011;9993;52.008;4.732;2022-10-24T12:20:17;5.15;;;2.40;;
19687;SDS011;9993;52.008;4.732;2022-10-24T12:22:44;5.10;;;2.60;;
19687;SDS011;9993;52.008;4.732;2022-10-24T12:27:38;2.65;;;2.15;;
19687;SDS011;9993;52.008;4.732;2022-10-24T12:32:37;3.42;;;1.60;;
19687;SDS011;9993;52.008;4.732;2022-10-24T12:35:23;5.63;;;2.08;;
19687;SDS011;9993;52.008;4.732;2022-10-24T12:37:48;4.70;;;2.50;;
19687;SDS011;9993;52.008;4.732;2022-10-24T12:45:29;6.45;;;1.92;;
19687;SDS011;9993;52.008;4.732;2022-10-24T12:55:30;8.77;;;2.87;;
19687;SDS011;9993;52.008;4.732;2022-10-24T12:57:56;5.38;;;2.65;;
19687;SDS011;9993;52.008;4.732;2022-10-24T13:00:23;5.82;;;2.30;;
19687;SDS011;9993;52.008;4.732;2022-10-24T13:02:51;7.55;;;3.15;;
19687;SDS011;9993;52.008;4.732;2022-10-24T13:08:09;3.88;;;2.55;;
19687;SDS011;9993;52.008;4.732;2022-10-24T13:13:15;7.20;;;2.80;;
19687;SDS011;9993;52.008;4.732;2022-10-24T13:15:54;2.83;;;2.35;;
19687;SDS011;9993;52.008;4.732;2022-10-24T13:23:31;5.18;;;2.38;;
19687;SDS011;9993;52.008;4.732;2022-10-24T13:25:57;5.95;;;3.00;;
19687;SDS011;9993;52.008;4.732;2022-10-24T13:33:42;7.72;;;2.92;;
19687;SDS011;9993;52.008;4.732;2022-10-24T13:38:35;5.60;;;2.35;;
19687;SDS011;9993;52.008;4.732;2022-10-24T13:41:05;3.67;;;1.92;;
19687;SDS011;9993;52.008;4.732;2022-10-24T13:43:31;11.90;;;2.70;;
19687;SDS011;9993;52.008;4.732;2022-10-24T13:46:03;7.35;;;2.38;;
19687;SDS011;9993;52.008;4.732;2022-10-24T13:48:30;8.20;;;2.53;;
19687;SDS011;9993;52.008;4.732;2022-10-24T13:53:29;7.82;;;2.60;;
19687;SDS011;9993;52.008;4.732;2022-10-24T13:55:55;8.60;;;2.70;;
19687;SDS011;9993;52.008;4.732;2022-10-24T13:58:23;4.15;;;2.20;;
19687;SDS011;9993;52.008;4.732;2022-10-24T14:00:52;3.70;;;2.38;;
19687;SDS011;9993;52.008;4.732;2022-10-24T14:03:19;5.07;;;2.40;;
19687;SDS011;9993;52.008;4.732;2022-10-24T14:08:30;4.70;;;1.95;;
19687;SDS011;9993;52.008;4.732;2022-10-24T14:10:56;9.23;;;2.47;;
19687;SDS011;9993;52.008;4.732;2022-10-24T14:13:24;7.40;;;2.38;;
19687;SDS011;9993;52.008;4.732;2022-10-24T14:15:51;8.23;;;2.20;;
19687;SDS011;9993;52.008;4.732;2022-10-24T14:18:18;7.30;;;2.17;;
19687;SDS011;9993;52.008;4.732;2022-10-24T14:20:49;6.53;;;2.10;;
19687;SDS011;9993;52.008;4.732;2022-10-24T14:23:19;5.78;;;1.98;;
19687;SDS011;9993;52.008;4.732;2022-10-24T14:25:46;6.43;;;2.45;;
19687;SDS011;9993;52.008;4.732;2022-10-24T14:28:17;5.90;;;2.30;;
19687;SDS011;9993;52.008;4.732;2022-10-24T14:30:51;3.80;;;1.85;;
19687;SDS011;9993;52.008;4.732;2022-10-24T14:33:19;4.28;;;2.03;;
19687;SDS011;9993;52.008;4.732;2022-10-24T14:35:45;1.85;;;1.60;;
19687;SDS011;9993;52.008;4.732;2022-10-24T14:38:11;3.05;;;1.80;;
19687;SDS011;9993;52.008;4.732;2022-10-24T14:40:37;2.53;;;2.10;;
19687;SDS011;9993;52.008;4.732;2022-10-24T14:43:03;5.25;;;2.00;;
19687;SDS011;9993;52.008;4.732;2022-10-24T14:45:28;4.93;;;2.00;;
19687;SDS011;9993;52.008;4.732;2022-10-24T14:47:55;7.20;;;2.13;;
19687;SDS011;9993;52.008;4.732;2022-10-24T14:53:04;3.85;;;2.40;;
19687;SDS011;9993;52.008;4.732;2022-10-24T14:55:29;7.25;;;1.73;;
19687;SDS011;9993;52.008;4.732;2022-10-24T14:57:55;5.88;;;1.98;;
19687;SDS011;9993;52.008;4.732;2022-10-24T15:00:22;4.82;;;1.90;;
19687;SDS011;9993;52.008;4.732;2022-10-24T15:02:48;6.40;;;2.33;;
19687;SDS011;9993;52.008;4.732;2022-10-24T15:07:47;8.45;;;2.15;;
19687;SDS011;9993;52.008;4.732;2022-10-24T15:15:19;2.25;;;1.50;;
19687;SDS011;9993;52.008;4.732;2022-10-24T15:17:47;6.70;;;1.73;;
19687;SDS011;9993;52.008;4.732;2022-10-24T15:20:14;7.88;;;2.08;;
19687;SDS011;9993;52.008;4.732;2022-10-24T15:22:45;4.90;;;1.85;;
19687;SDS011;9993;52.008;4.732;2022-10-24T15:25:21;4.85;;;1.95;;
19687;SDS011;9993;52.008;4.732;2022-10-24T15:27:47;8.45;;;1.95;;
19687;SDS011;9993;52.008;4.732;2022-10-24T15:30:13;8.35;;;2.28;;
19687;SDS011;9993;52.008;4.732;2022-10-24T15:32:42;5.40;;;2.22;;
19687;SDS011;9993;52.008;4.732;2022-10-24T15:35:28;8.88;;;2.70;;
19687;SDS011;9993;52.008;4.732;2022-10-24T15:37:54;9.32;;;2.05;;
19687;SDS011;9993;52.008;4.732;2022-10-24T15:40:22;4.30;;;1.92;;
19687;SDS011;9993;52.008;4.732;2022-10-24T15:42:47;8.23;;;2.15;;
19687;SDS011;9993;52.008;4.732;2022-10-24T15:45:13;7.85;;;2.13;;
19687;SDS011;9993;52.008;4.732;2022-10-24T15:47:39;7.95;;;2.33;;
19687;SDS011;9993;52.008;4.732;2022-10-24T15:50:04;8.98;;;2.60;;
19687;SDS011;9993;52.008;4.732;2022-10-24T15:52:30;5.50;;;2.38;;
19687;SDS011;9993;52.008;4.732;2022-10-24T15:54:55;9.32;;;2.55;;
19687;SDS011;9993;52.008;4.732;2022-10-24T15:57:20;5.85;;;2.15;;
19687;SDS011;9993;52.008;4.732;2022-10-24T15:59:45;11.40;;;2.10;;
19687;SDS011;9993;52.008;4.732;2022-10-24T16:02:13;10.07;;;2.88;;
19687;SDS011;9993;52.008;4.732;2022-10-24T16:04:40;6.25;;;2.55;;
19687;SDS011;9993;52.008;4.732;2022-10-24T16:07:05;5.95;;;2.50;;
19687;SDS011;9993;52.008;4.732;2022-10-24T16:09:30;9.25;;;2.25;;
19687;SDS011;9993;52.008;4.732;2022-10-24T16:11:55;7.53;;;2.40;;
19687;SDS011;9993;52.008;4.732;2022-10-24T16:14:21;7.18;;;2.40;;
19687;SDS011;9993;52.008;4.732;2022-10-24T16:16:47;6.47;;;2.20;;
19687;SDS011;9993;52.008;4.732;2022-10-24T16:19:12;10.57;;;2.45;;
19687;SDS011;9993;52.008;4.732;2022-10-24T16:21:38;12.65;;;2.88;;
19687;SDS011;9993;52.008;4.732;2022-10-24T16:24:04;9.88;;;2.38;;
19687;SDS011;9993;52.008;4.732;2022-10-24T16:26:29;9.02;;;3.03;;
19687;SDS011;9993;52.008;4.732;2022-10-24T16:28:54;9.13;;;2.47;;
19687;SDS011;9993;52.008;4.732;2022-10-24T16:31:19;4.95;;;2.72;;
19687;SDS011;9993;52.008;4.732;2022-10-24T16:33:48;7.68;;;2.60;;
19687;SDS011;9993;52.008;4.732;2022-10-24T16:36:14;10.35;;;2.58;;
19687;SDS011;9993;52.008;4.732;2022-10-24T16:38:39;11.25;;;2.47;;
19687;SDS011;9993;52.008;4.732;2022-10-24T16:41:05;11.90;;;2.55;;
19687;SDS011;9993;52.008;4.732;2022-10-24T16:43:30;7.57;;;2.60;;
19687;SDS011;9993;52.008;4.732;2022-10-24T16:45:59;9.05;;;2.20;;
19687;SDS011;9993;52.008;4.732;2022-10-24T16:48:24;6.50;;;2.15;;
19687;SDS011;9993;52.008;4.732;2022-10-24T16:50:50;11.60;;;2.58;;
19687;SDS011;9993;52.008;4.732;2022-10-24T16:53:15;6.28;;;2.40;;
19687;SDS011;9993;52.008;4.732;2022-10-24T16:55:46;8.20;;;2.42;;
19687;SDS011;9993;52.008;4.732;2022-10-24T16:58:11;9.98;;;3.00;;
19687;SDS011;9993;52.008;4.732;2022-10-24T17:00:36;9.05;;;2.83;;
19687;SDS011;9993;52.008;4.732;2022-10-24T17:03:01;9.48;;;2.83;;
19687;SDS011;9993;52.008;4.732;2022-10-24T17:05:26;7.78;;;2.40;;
19687;SDS011;9993;52.008;4.732;2022-10-24T17:07:52;8.82;;;2.58;;
19687;SDS011;9993;52.008;4.732;2022-10-24T17:10:18;7.75;;;2.55;;
19687;SDS011;9993;52.008;4.732;2022-10-24T17:12:44;9.18;;;2.63;;
19687;SDS011;9993;52.008;4.732;2022-10-24T17:15:11;6.38;;;2.70;;
19687;SDS011;9993;52.008;4.732;2022-10-24T17:17:36;9.32;;;2.30;;
19687;SDS011;9993;52.008;4.732;2022-10-24T17:20:03;10.48;;;2.90;;